sensor_id;sensor_type;location;lat;lon;timestamp;P1;durP1;ratioP1;P2;durP2;ratioP2
73276;SDS011;61501;43.316;5.372;2022-09-02T00:00:42;8.05;;;6.72;;
73276;SDS011;61501;43.316;5.372;2022-09-02T00:03:09;12.32;;;6.65;;
73276;SDS011;61501;43.316;5.372;2022-09-02T00:05:35;7.88;;;6.68;;
73276;SDS011;61501;43.316;5.372;2022-09-02T00:08:01;10.80;;;6.78;;
73276;SDS011;61501;43.316;5.372;2022-09-02T00:10:27;9.75;;;6.20;;
73276;SDS011;61501;43.316;5.372;2022-09-02T00:12:54;8.27;;;6.05;;
73276;SDS011;61501;43.316;5.372;2022-09-02T00:15:20;9.50;;;5.80;;
73276;SDS011;61501;43.316;5.372;2022-09-02T00:17:47;11.15;;;6.07;;
73276;SDS011;61501;43.316;5.372;2022-09-02T00:20:13;8.10;;;6.32;;
73276;SDS011;61501;43.316;5.372;2022-09-02T00:22:39;10.40;;;5.95;;
73276;SDS011;61501;43.316;5.372;2022-09-02T00:25:05;6.32;;;5.65;;
73276;SDS011;61501;43.316;5.372;2022-09-02T00:27:31;9.38;;;6.38;;
73276;SDS011;61501;43.316;5.372;2022-09-02T00:29:57;8.15;;;5.65;;
73276;SDS011;61501;43.316;5.372;2022-09-02T00:32:23;6.38;;;5.68;;
73276;SDS011;61501;43.316;5.372;2022-09-02T00:34:49;8.55;;;6.07;;
73276;SDS011;61501;43.316;5.372;2022-09-02T00:37:15;6.57;;;5.75;;
73276;SDS011;61501;43.316;5.372;2022-09-02T00:39:41;6.20;;;5.57;;
73276;SDS011;61501;43.316;5.372;2022-09-02T00:42:08;7.22;;;6.15;;
73276;SDS011;61501;43.316;5.372;2022-09-02T00:44:34;7.03;;;5.35;;
73276;SDS011;61501;43.316;5.372;2022-09-02T00:47:00;9.85;;;6.07;;
73276;SDS011;61501;43.316;5.372;2022-09-02T00:51:54;7.28;;;5.70;;
73276;SDS011;61501;43.316;5.372;2022-09-02T00:54:20;6.53;;;5.68;;
73276;SDS011;61501;43.316;5.372;2022-09-02T00:56:47;8.98;;;6.22;;
73276;SDS011;61501;43.316;5.372;2022-09-02T00:59:17;7.25;;;6.25;;
73276;SDS011;61501;43.316;5.372;2022-09-02T01:01:45;8.80;;;5.93;;
73276;SDS011;61501;43.316;5.372;2022-09-02T01:04:11;8.05;;;6.50;;
73276;SDS011;61501;43.316;5.372;2022-09-02T01:06:37;7.18;;;6.47;;
73276;SDS011;61501;43.316;5.372;2022-09-02T01:09:06;8.98;;;6.80;;
73276;SDS011;61501;43.316;5.372;2022-09-02T01:11:41;9.88;;;7.93;;
73276;SDS011;61501;43.316;5.372;2022-09-02T01:14:09;11.52;;;7.25;;
73276;SDS011;61501;43.316;5.372;2022-09-02T01:16:47;9.05;;;6.50;;
73276;SDS011;61501;43.316;5.372;2022-09-02T01:19:21;10.18;;;6.93;;
73276;SDS011;61501;43.316;5.372;2022-09-02T01:21:50;8.85;;;6.63;;
73276;SDS011;61501;43.316;5.372;2022-09-02T01:24:16;9.32;;;6.50;;
73276;SDS011;61501;43.316;5.372;2022-09-02T01:26:43;8.80;;;6.30;;
73276;SDS011;61501;43.316;5.372;2022-09-02T01:29:09;7.97;;;6.35;;
73276;SDS011;61501;43.316;5.372;2022-09-02T01:31:36;8.00;;;6.43;;
73276;SDS011;61501;43.316;5.372;2022-09-02T01:34:02;10.07;;;6.40;;
73276;SDS011;61501;43.316;5.372;2022-09-02T01:36:30;9.70;;;6.15;;
73276;SDS011;61501;43.316;5.372;2022-09-02T01:38:56;9.52;;;5.65;;
73276;SDS011;61501;43.316;5.372;2022-09-02T01:41:22;8.77;;;5.95;;
73276;SDS011;61501;43.316;5.372;2022-09-02T01:43:48;8.98;;;6.10;;
73276;SDS011;61501;43.316;5.372;2022-09-02T01:46:14;7.03;;;5.60;;
73276;SDS011;61501;43.316;5.372;2022-09-02T01:48:40;7.35;;;5.93;;
73276;SDS011;61501;43.316;5.372;2022-09-02T01:51:06;7.60;;;5.57;;
73276;SDS011;61501;43.316;5.372;2022-09-02T01:53:32;6.53;;;5.85;;
73276;SDS011;61501;43.316;5.372;2022-09-02T01:55:59;6.72;;;5.75;;
73276;SDS011;61501;43.316;5.372;2022-09-02T01:58:25;8.70;;;6.03;;
73276;SDS011;61501;43.316;5.372;2022-09-02T02:00:51;9.10;;;5.82;;
73276;SDS011;61501;43.316;5.372;2022-09-02T02:03:17;6.60;;;5.90;;
73276;SDS011;61501;43.316;5.372;2022-09-02T02:05:44;6.70;;;6.03;;
73276;SDS011;61501;43.316;5.372;2022-09-02T02:08:10;11.10;;;6.00;;
73276;SDS011;61501;43.316;5.372;2022-09-02T02:10:36;6.10;;;5.43;;
73276;SDS011;61501;43.316;5.372;2022-09-02T02:13:04;8.23;;;5.78;;
73276;SDS011;61501;43.316;5.372;2022-09-02T02:15:30;8.38;;;5.80;;
73276;SDS011;61501;43.316;5.372;2022-09-02T02:17:56;5.93;;;5.32;;
73276;SDS011;61501;43.316;5.372;2022-09-02T02:20:22;7.47;;;5.10;;
73276;SDS011;61501;43.316;5.372;2022-09-02T02:22:50;5.97;;;5.35;;
73276;SDS011;61501;43.316;5.372;2022-09-02T02:25:16;7.40;;;4.97;;
73276;SDS011;61501;43.316;5.372;2022-09-02T02:27:43;6.88;;;4.60;;
73276;SDS011;61501;43.316;5.372;2022-09-02T02:30:10;7.65;;;5.00;;
73276;SDS011;61501;43.316;5.372;2022-09-02T02:32:36;6.05;;;5.00;;
73276;SDS011;61501;43.316;5.372;2022-09-02T02:35:02;7.65;;;5.20;;
73276;SDS011;61501;43.316;5.372;2022-09-02T02:37:28;7.57;;;5.18;;
73276;SDS011;61501;43.316;5.372;2022-09-02T02:39:54;11.18;;;6.75;;
73276;SDS011;61501;43.316;5.372;2022-09-02T02:42:21;8.68;;;7.72;;
73276;SDS011;61501;43.316;5.372;2022-09-02T02:44:47;9.15;;;6.55;;
73276;SDS011;61501;43.316;5.372;2022-09-02T02:47:13;8.80;;;6.13;;
73276;SDS011;61501;43.316;5.372;2022-09-02T02:49:40;12.43;;;9.82;;
73276;SDS011;61501;43.316;5.372;2022-09-02T02:52:07;10.80;;;5.88;;
73276;SDS011;61501;43.316;5.372;2022-09-02T02:54:33;7.68;;;5.47;;
73276;SDS011;61501;43.316;5.372;2022-09-02T02:56:59;6.90;;;5.13;;
73276;SDS011;61501;43.316;5.372;2022-09-02T02:59:25;5.03;;;4.53;;
73276;SDS011;61501;43.316;5.372;2022-09-02T03:01:53;6.20;;;4.90;;
73276;SDS011;61501;43.316;5.372;2022-09-02T03:04:19;5.60;;;4.70;;
73276;SDS011;61501;43.316;5.372;2022-09-02T03:06:45;5.20;;;4.70;;
73276;SDS011;61501;43.316;5.372;2022-09-02T03:09:11;5.10;;;4.60;;
73276;SDS011;61501;43.316;5.372;2022-09-02T03:11:38;6.90;;;5.10;;
73276;SDS011;61501;43.316;5.372;2022-09-02T03:14:04;5.72;;;4.65;;
73276;SDS011;61501;43.316;5.372;2022-09-02T03:16:33;4.93;;;4.50;;
73276;SDS011;61501;43.316;5.372;2022-09-02T03:18:59;5.95;;;4.88;;
73276;SDS011;61501;43.316;5.372;2022-09-02T03:21:25;5.50;;;4.63;;
73276;SDS011;61501;43.316;5.372;2022-09-02T03:23:51;5.50;;;4.60;;
73276;SDS011;61501;43.316;5.372;2022-09-02T03:26:19;6.90;;;4.90;;
73276;SDS011;61501;43.316;5.372;2022-09-02T03:28:45;6.82;;;4.75;;
73276;SDS011;61501;43.316;5.372;2022-09-02T03:31:13;6.53;;;4.50;;
73276;SDS011;61501;43.316;5.372;2022-09-02T03:33:40;5.78;;;4.93;;
73276;SDS011;61501;43.316;5.372;2022-09-02T03:36:06;7.35;;;4.68;;
73276;SDS011;61501;43.316;5.372;2022-09-02T03:38:33;5.90;;;4.45;;
73276;SDS011;61501;43.316;5.372;2022-09-02T03:40:59;6.85;;;4.90;;
73276;SDS011;61501;43.316;5.372;2022-09-02T03:43:25;8.35;;;4.55;;
73276;SDS011;61501;43.316;5.372;2022-09-02T03:45:51;6.50;;;4.63;;
73276;SDS011;61501;43.316;5.372;2022-09-02T03:48:17;4.85;;;4.03;;
73276;SDS011;61501;43.316;5.372;2022-09-02T03:50:44;5.30;;;4.68;;
73276;SDS011;61501;43.316;5.372;2022-09-02T03:53:11;5.72;;;4.35;;
73276;SDS011;61501;43.316;5.372;2022-09-02T03:55:37;5.53;;;4.40;;
73276;SDS011;61501;43.316;5.372;2022-09-02T03:58:04;5.75;;;4.30;;
73276;SDS011;61501;43.316;5.372;2022-09-02T04:00:30;6.65;;;4.80;;
73276;SDS011;61501;43.316;5.372;2022-09-02T04:02:57;5.88;;;4.60;;
73276;SDS011;61501;43.316;5.372;2022-09-02T04:05:24;5.55;;;4.60;;
73276;SDS011;61501;43.316;5.372;2022-09-02T04:07:50;8.02;;;4.10;;
73276;SDS011;61501;43.316;5.372;2022-09-02T04:10:17;7.63;;;4.45;;
73276;SDS011;61501;43.316;5.372;2022-09-02T04:12:43;7.25;;;4.72;;
73276;SDS011;61501;43.316;5.372;2022-09-02T04:15:10;4.88;;;4.32;;
73276;SDS011;61501;43.316;5.372;2022-09-02T04:17:38;7.18;;;4.60;;
73276;SDS011;61501;43.316;5.372;2022-09-02T04:20:05;6.78;;;4.80;;
73276;SDS011;61501;43.316;5.372;2022-09-02T04:22:32;6.47;;;5.47;;
73276;SDS011;61501;43.316;5.372;2022-09-02T04:24:58;7.97;;;4.32;;
73276;SDS011;61501;43.316;5.372;2022-09-02T04:27:24;4.95;;;4.35;;
73276;SDS011;61501;43.316;5.372;2022-09-02T04:29:50;5.82;;;4.60;;
73276;SDS011;61501;43.316;5.372;2022-09-02T04:32:16;5.80;;;4.65;;
73276;SDS011;61501;43.316;5.372;2022-09-02T04:34:42;4.53;;;4.07;;
73276;SDS011;61501;43.316;5.372;2022-09-02T04:37:08;8.25;;;4.78;;
73276;SDS011;61501;43.316;5.372;2022-09-02T04:39:37;7.38;;;5.03;;
73276;SDS011;61501;43.316;5.372;2022-09-02T04:42:03;6.53;;;4.70;;
73276;SDS011;61501;43.316;5.372;2022-09-02T04:44:29;6.25;;;4.65;;
73276;SDS011;61501;43.316;5.372;2022-09-02T04:46:55;5.85;;;4.80;;
73276;SDS011;61501;43.316;5.372;2022-09-02T04:49:21;5.80;;;4.25;;
73276;SDS011;61501;43.316;5.372;2022-09-02T04:51:47;7.97;;;5.10;;
73276;SDS011;61501;43.316;5.372;2022-09-02T04:54:14;5.47;;;4.22;;
73276;SDS011;61501;43.316;5.372;2022-09-02T04:56:40;6.85;;;4.85;;
73276;SDS011;61501;43.316;5.372;2022-09-02T04:59:06;6.35;;;4.90;;
73276;SDS011;61501;43.316;5.372;2022-09-02T05:01:33;8.82;;;4.82;;
73276;SDS011;61501;43.316;5.372;2022-09-02T05:04:00;10.40;;;5.00;;
73276;SDS011;61501;43.316;5.372;2022-09-02T05:06:27;4.88;;;4.38;;
73276;SDS011;61501;43.316;5.372;2022-09-02T05:08:53;7.47;;;4.32;;
73276;SDS011;61501;43.316;5.372;2022-09-02T05:11:21;5.68;;;4.65;;
73276;SDS011;61501;43.316;5.372;2022-09-02T05:13:48;6.43;;;4.70;;
73276;SDS011;61501;43.316;5.372;2022-09-02T05:16:20;5.50;;;4.80;;
73276;SDS011;61501;43.316;5.372;2022-09-02T05:18:47;6.63;;;4.50;;
73276;SDS011;61501;43.316;5.372;2022-09-02T05:21:13;5.82;;;4.40;;
73276;SDS011;61501;43.316;5.372;2022-09-02T05:23:39;6.78;;;5.13;;
73276;SDS011;61501;43.316;5.372;2022-09-02T05:26:06;8.52;;;5.18;;
73276;SDS011;61501;43.316;5.372;2022-09-02T05:28:32;6.70;;;4.40;;
73276;SDS011;61501;43.316;5.372;2022-09-02T05:31:03;7.88;;;4.85;;
73276;SDS011;61501;43.316;5.372;2022-09-02T05:33:30;8.52;;;4.70;;
73276;SDS011;61501;43.316;5.372;2022-09-02T05:35:55;7.88;;;4.65;;
73276;SDS011;61501;43.316;5.372;2022-09-02T05:38:21;5.22;;;4.10;;
73276;SDS011;61501;43.316;5.372;2022-09-02T05:40:49;11.02;;;4.72;;
73276;SDS011;61501;43.316;5.372;2022-09-02T05:43:15;6.25;;;4.97;;
73276;SDS011;61501;43.316;5.372;2022-09-02T05:45:41;5.80;;;4.30;;
73276;SDS011;61501;43.316;5.372;2022-09-02T05:48:08;6.90;;;4.63;;
73276;SDS011;61501;43.316;5.372;2022-09-02T05:50:53;5.30;;;4.78;;
73276;SDS011;61501;43.316;5.372;2022-09-02T05:53:19;6.30;;;4.97;;
73276;SDS011;61501;43.316;5.372;2022-09-02T05:55:45;5.90;;;5.00;;
73276;SDS011;61501;43.316;5.372;2022-09-02T05:58:11;5.50;;;4.82;;
73276;SDS011;61501;43.316;5.372;2022-09-02T06:00:38;8.02;;;4.57;;
73276;SDS011;61501;43.316;5.372;2022-09-02T06:03:04;9.90;;;5.00;;
73276;SDS011;61501;43.316;5.372;2022-09-02T06:05:30;9.13;;;5.15;;
73276;SDS011;61501;43.316;5.372;2022-09-02T06:07:56;8.52;;;5.35;;
73276;SDS011;61501;43.316;5.372;2022-09-02T06:10:23;5.82;;;5.20;;
73276;SDS011;61501;43.316;5.372;2022-09-02T06:12:49;5.90;;;4.88;;
73276;SDS011;61501;43.316;5.372;2022-09-02T06:15:15;8.35;;;5.20;;
73276;SDS011;61501;43.316;5.372;2022-09-02T06:17:41;8.57;;;5.47;;
73276;SDS011;61501;43.316;5.372;2022-09-02T06:20:07;5.88;;;5.18;;
73276;SDS011;61501;43.316;5.372;2022-09-02T06:22:33;7.53;;;5.10;;
73276;SDS011;61501;43.316;5.372;2022-09-02T06:24:59;8.32;;;5.38;;
73276;SDS011;61501;43.316;5.372;2022-09-02T06:27:25;6.53;;;5.10;;
73276;SDS011;61501;43.316;5.372;2022-09-02T06:29:51;6.88;;;5.18;;
73276;SDS011;61501;43.316;5.372;2022-09-02T06:32:17;7.82;;;4.80;;
73276;SDS011;61501;43.316;5.372;2022-09-02T06:34:44;9.02;;;5.30;;
73276;SDS011;61501;43.316;5.372;2022-09-02T06:37:10;8.25;;;4.80;;
73276;SDS011;61501;43.316;5.372;2022-09-02T06:39:36;7.28;;;5.10;;
73276;SDS011;61501;43.316;5.372;2022-09-02T06:42:02;6.28;;;4.85;;
73276;SDS011;61501;43.316;5.372;2022-09-02T06:44:28;7.85;;;4.53;;
73276;SDS011;61501;43.316;5.372;2022-09-02T06:46:56;7.10;;;4.55;;
73276;SDS011;61501;43.316;5.372;2022-09-02T06:49:22;8.60;;;5.03;;
73276;SDS011;61501;43.316;5.372;2022-09-02T06:51:49;9.95;;;5.00;;
73276;SDS011;61501;43.316;5.372;2022-09-02T06:54:16;8.57;;;4.75;;
73276;SDS011;61501;43.316;5.372;2022-09-02T06:56:43;7.32;;;4.72;;
73276;SDS011;61501;43.316;5.372;2022-09-02T06:59:09;6.07;;;4.75;;
73276;SDS011;61501;43.316;5.372;2022-09-02T07:01:36;6.07;;;4.82;;
73276;SDS011;61501;43.316;5.372;2022-09-02T07:04:02;6.65;;;4.63;;
73276;SDS011;61501;43.316;5.372;2022-09-02T07:06:49;9.23;;;5.00;;
73276;SDS011;61501;43.316;5.372;2022-09-02T07:09:18;7.53;;;5.03;;
73276;SDS011;61501;43.316;5.372;2022-09-02T07:11:45;6.38;;;4.43;;
73276;SDS011;61501;43.316;5.372;2022-09-02T07:14:12;10.80;;;5.00;;
73276;SDS011;61501;43.316;5.372;2022-09-02T07:16:41;7.43;;;5.05;;
73276;SDS011;61501;43.316;5.372;2022-09-02T07:19:08;9.82;;;5.50;;
73276;SDS011;61501;43.316;5.372;2022-09-02T07:21:34;8.57;;;5.10;;
73276;SDS011;61501;43.316;5.372;2022-09-02T07:24:01;9.32;;;4.50;;
73276;SDS011;61501;43.316;5.372;2022-09-02T07:26:27;8.15;;;4.72;;
73276;SDS011;61501;43.316;5.372;2022-09-02T07:28:53;9.35;;;4.72;;
73276;SDS011;61501;43.316;5.372;2022-09-02T07:31:20;12.00;;;5.40;;
73276;SDS011;61501;43.316;5.372;2022-09-02T07:33:47;7.13;;;4.93;;
73276;SDS011;61501;43.316;5.372;2022-09-02T07:36:13;7.00;;;4.32;;
73276;SDS011;61501;43.316;5.372;2022-09-02T07:38:40;7.07;;;4.70;;
73276;SDS011;61501;43.316;5.372;2022-09-02T07:41:07;9.07;;;4.30;;
73276;SDS011;61501;43.316;5.372;2022-09-02T07:43:34;9.88;;;4.80;;
73276;SDS011;61501;43.316;5.372;2022-09-02T07:46:00;7.63;;;4.57;;
73276;SDS011;61501;43.316;5.372;2022-09-02T07:48:27;8.63;;;5.22;;
73276;SDS011;61501;43.316;5.372;2022-09-02T07:50:53;12.40;;;5.50;;
73276;SDS011;61501;43.316;5.372;2022-09-02T07:53:19;8.65;;;4.47;;
73276;SDS011;61501;43.316;5.372;2022-09-02T07:55:46;6.30;;;4.50;;
73276;SDS011;61501;43.316;5.372;2022-09-02T07:58:13;6.72;;;4.38;;
73276;SDS011;61501;43.316;5.372;2022-09-02T08:00:40;10.88;;;4.70;;
73276;SDS011;61501;43.316;5.372;2022-09-02T08:03:06;8.95;;;5.13;;
73276;SDS011;61501;43.316;5.372;2022-09-02T08:05:33;8.05;;;4.68;;
73276;SDS011;61501;43.316;5.372;2022-09-02T08:08:00;9.73;;;4.85;;
73276;SDS011;61501;43.316;5.372;2022-09-02T08:10:26;6.53;;;4.68;;
73276;SDS011;61501;43.316;5.372;2022-09-02T08:12:54;6.90;;;4.43;;
73276;SDS011;61501;43.316;5.372;2022-09-02T08:15:21;7.85;;;4.97;;
73276;SDS011;61501;43.316;5.372;2022-09-02T08:17:47;10.20;;;5.43;;
73276;SDS011;61501;43.316;5.372;2022-09-02T08:20:13;6.85;;;4.95;;
73276;SDS011;61501;43.316;5.372;2022-09-02T08:22:41;9.38;;;5.35;;
73276;SDS011;61501;43.316;5.372;2022-09-02T08:25:07;5.82;;;4.75;;
73276;SDS011;61501;43.316;5.372;2022-09-02T08:27:34;5.72;;;4.93;;
73276;SDS011;61501;43.316;5.372;2022-09-02T08:30:00;7.40;;;5.00;;
73276;SDS011;61501;43.316;5.372;2022-09-02T08:32:29;7.10;;;4.80;;
73276;SDS011;61501;43.316;5.372;2022-09-02T08:34:57;7.45;;;4.85;;
73276;SDS011;61501;43.316;5.372;2022-09-02T08:37:26;8.32;;;5.35;;
73276;SDS011;61501;43.316;5.372;2022-09-02T08:39:52;9.52;;;5.47;;
73276;SDS011;61501;43.316;5.372;2022-09-02T08:47:21;13.32;;;6.22;;
73276;SDS011;61501;43.316;5.372;2022-09-02T08:49:52;7.85;;;5.30;;
73276;SDS011;61501;43.316;5.372;2022-09-02T08:52:23;7.93;;;5.57;;
73276;SDS011;61501;43.316;5.372;2022-09-02T08:54:51;8.63;;;6.05;;
73276;SDS011;61501;43.316;5.372;2022-09-02T08:57:25;9.68;;;5.25;;
73276;SDS011;61501;43.316;5.372;2022-09-02T08:59:52;10.52;;;5.20;;
73276;SDS011;61501;43.316;5.372;2022-09-02T09:02:26;8.00;;;5.50;;
73276;SDS011;61501;43.316;5.372;2022-09-02T09:13:02;6.68;;;5.38;;
73276;SDS011;61501;43.316;5.372;2022-09-02T09:18:01;8.65;;;5.10;;
73276;SDS011;61501;43.316;5.372;2022-09-02T09:20:30;7.70;;;4.97;;
73276;SDS011;61501;43.316;5.372;2022-09-02T09:22:59;12.30;;;5.63;;
73276;SDS011;61501;43.316;5.372;2022-09-02T09:25:27;7.20;;;5.00;;
73276;SDS011;61501;43.316;5.372;2022-09-02T09:27:56;8.75;;;4.95;;
73276;SDS011;61501;43.316;5.372;2022-09-02T09:30:22;9.90;;;4.68;;
73276;SDS011;61501;43.316;5.372;2022-09-02T09:32:50;5.68;;;4.47;;
73276;SDS011;61501;43.316;5.372;2022-09-02T09:35:19;7.22;;;4.85;;
73276;SDS011;61501;43.316;5.372;2022-09-02T09:37:52;6.85;;;4.53;;
73276;SDS011;61501;43.316;5.372;2022-09-02T09:42:52;8.68;;;4.63;;
73276;SDS011;61501;43.316;5.372;2022-09-02T09:45:21;9.10;;;4.40;;
73276;SDS011;61501;43.316;5.372;2022-09-02T09:50:35;8.38;;;4.15;;
73276;SDS011;61501;43.316;5.372;2022-09-02T09:55:51;8.38;;;4.45;;
73276;SDS011;61501;43.316;5.372;2022-09-02T09:58:17;8.70;;;5.10;;
73276;SDS011;61501;43.316;5.372;2022-09-02T10:00:44;8.52;;;4.90;;
73276;SDS011;61501;43.316;5.372;2022-09-02T10:03:17;10.52;;;4.72;;
73276;SDS011;61501;43.316;5.372;2022-09-02T10:05:43;9.13;;;4.80;;
73276;SDS011;61501;43.316;5.372;2022-09-02T10:10:38;5.97;;;4.47;;
73276;SDS011;61501;43.316;5.372;2022-09-02T10:13:21;10.40;;;4.65;;
73276;SDS011;61501;43.316;5.372;2022-09-02T10:18:48;7.35;;;4.30;;
73276;SDS011;61501;43.316;5.372;2022-09-02T10:21:50;8.57;;;4.35;;
73276;SDS011;61501;43.316;5.372;2022-09-02T10:26:53;6.85;;;5.03;;
73276;SDS011;61501;43.316;5.372;2022-09-02T10:32:14;5.50;;;4.13;;
73276;SDS011;61501;43.316;5.372;2022-09-02T10:34:49;4.10;;;3.70;;
73276;SDS011;61501;43.316;5.372;2022-09-02T10:37:21;5.85;;;3.88;;
73276;SDS011;61501;43.316;5.372;2022-09-02T10:47:31;10.27;;;4.10;;
73276;SDS011;61501;43.316;5.372;2022-09-02T10:52:31;8.65;;;4.72;;
73276;SDS011;61501;43.316;5.372;2022-09-02T10:57:51;5.10;;;3.85;;
73276;SDS011;61501;43.316;5.372;2022-09-02T11:00:19;7.40;;;4.22;;
73276;SDS011;61501;43.316;5.372;2022-09-02T11:05:23;7.30;;;3.88;;
73276;SDS011;61501;43.316;5.372;2022-09-02T11:08:04;5.22;;;4.10;;
73276;SDS011;61501;43.316;5.372;2022-09-02T11:15:45;5.22;;;3.97;;
73276;SDS011;61501;43.316;5.372;2022-09-02T11:26:14;5.05;;;4.07;;
73276;SDS011;61501;43.316;5.372;2022-09-02T11:28:51;8.75;;;4.60;;
73276;SDS011;61501;43.316;5.372;2022-09-02T11:31:20;4.10;;;3.67;;
73276;SDS011;61501;43.316;5.372;2022-09-02T11:36:30;5.40;;;3.58;;
73276;SDS011;61501;43.316;5.372;2022-09-02T11:54:40;4.75;;;3.80;;
73276;SDS011;61501;43.316;5.372;2022-09-02T11:57:10;8.07;;;3.95;;
73276;SDS011;61501;43.316;5.372;2022-09-02T12:03:17;7.47;;;4.00;;
73276;SDS011;61501;43.316;5.372;2022-09-02T12:13:07;8.57;;;4.57;;
73276;SDS011;61501;43.316;5.372;2022-09-02T12:15:33;11.23;;;7.63;;
73276;SDS011;61501;43.316;5.372;2022-09-02T12:18:09;5.88;;;4.20;;
73276;SDS011;61501;43.316;5.372;2022-09-02T12:23:08;4.18;;;3.78;;
73276;SDS011;61501;43.316;5.372;2022-09-02T12:25:36;5.70;;;3.67;;
73276;SDS011;61501;43.316;5.372;2022-09-02T12:28:23;4.43;;;3.88;;
73276;SDS011;61501;43.316;5.372;2022-09-02T12:33:33;5.65;;;4.22;;
73276;SDS011;61501;43.316;5.372;2022-09-02T12:35:59;7.75;;;4.38;;
73276;SDS011;61501;43.316;5.372;2022-09-02T12:48:44;7.03;;;4.22;;
73276;SDS011;61501;43.316;5.372;2022-09-02T12:51:39;5.18;;;3.83;;
73276;SDS011;61501;43.316;5.372;2022-09-02T12:53:59;4.80;;;3.70;;
73276;SDS011;61501;43.316;5.372;2022-09-02T12:56:26;4.45;;;3.80;;
73276;SDS011;61501;43.316;5.372;2022-09-02T12:58:53;7.32;;;4.05;;
73276;SDS011;61501;43.316;5.372;2022-09-02T13:11:45;7.50;;;4.18;;
73276;SDS011;61501;43.316;5.372;2022-09-02T13:25:08;6.10;;;3.90;;
73276;SDS011;61501;43.316;5.372;2022-09-02T13:30:12;6.78;;;3.88;;
73276;SDS011;61501;43.316;5.372;2022-09-02T13:32:38;6.90;;;4.00;;
73276;SDS011;61501;43.316;5.372;2022-09-02T13:35:15;8.50;;;4.30;;
73276;SDS011;61501;43.316;5.372;2022-09-02T13:37:42;6.90;;;4.38;;
73276;SDS011;61501;43.316;5.372;2022-09-02T13:42:54;6.45;;;4.38;;
73276;SDS011;61501;43.316;5.372;2022-09-02T13:45:23;5.20;;;4.47;;
73276;SDS011;61501;43.316;5.372;2022-09-02T13:47:50;7.03;;;4.25;;
73276;SDS011;61501;43.316;5.372;2022-09-02T13:50:18;9.45;;;4.10;;
73276;SDS011;61501;43.316;5.372;2022-09-02T13:52:46;8.63;;;4.50;;
73276;SDS011;61501;43.316;5.372;2022-09-02T13:55:14;9.93;;;6.70;;
73276;SDS011;61501;43.316;5.372;2022-09-02T13:57:44;10.57;;;9.55;;
73276;SDS011;61501;43.316;5.372;2022-09-02T14:00:13;7.57;;;4.40;;
73276;SDS011;61501;43.316;5.372;2022-09-02T14:02:41;9.40;;;6.30;;
73276;SDS011;61501;43.316;5.372;2022-09-02T14:05:19;8.25;;;4.70;;
73276;SDS011;61501;43.316;5.372;2022-09-02T14:07:47;7.18;;;4.40;;
73276;SDS011;61501;43.316;5.372;2022-09-02T14:10:14;7.35;;;3.97;;
73276;SDS011;61501;43.316;5.372;2022-09-02T14:12:41;7.70;;;4.45;;
73276;SDS011;61501;43.316;5.372;2022-09-02T14:15:09;5.88;;;4.57;;
73276;SDS011;61501;43.316;5.372;2022-09-02T14:17:36;4.88;;;4.25;;
73276;SDS011;61501;43.316;5.372;2022-09-02T14:20:18;9.32;;;5.10;;
73276;SDS011;61501;43.316;5.372;2022-09-02T14:22:54;11.60;;;7.30;;
73276;SDS011;61501;43.316;5.372;2022-09-02T14:25:20;6.30;;;4.90;;
73276;SDS011;61501;43.316;5.372;2022-09-02T14:27:50;7.38;;;3.90;;
73276;SDS011;61501;43.316;5.372;2022-09-02T14:38:52;6.45;;;4.35;;
73276;SDS011;61501;43.316;5.372;2022-09-02T14:41:22;6.40;;;4.40;;
73276;SDS011;61501;43.316;5.372;2022-09-02T14:43:49;6.05;;;4.43;;
73276;SDS011;61501;43.316;5.372;2022-09-02T14:46:49;6.28;;;4.05;;
73276;SDS011;61501;43.316;5.372;2022-09-02T14:49:09;6.83;;;4.47;;
73276;SDS011;61501;43.316;5.372;2022-09-02T14:51:55;9.52;;;4.65;;
73276;SDS011;61501;43.316;5.372;2022-09-02T14:54:35;7.35;;;4.43;;
73276;SDS011;61501;43.316;5.372;2022-09-02T14:57:03;7.47;;;4.10;;
73276;SDS011;61501;43.316;5.372;2022-09-02T14:59:29;6.90;;;3.90;;
73276;SDS011;61501;43.316;5.372;2022-09-02T15:01:55;6.03;;;3.60;;
73276;SDS011;61501;43.316;5.372;2022-09-02T15:04:23;7.32;;;3.90;;
73276;SDS011;61501;43.316;5.372;2022-09-02T15:06:49;9.35;;;4.18;;
73276;SDS011;61501;43.316;5.372;2022-09-02T15:09:15;4.93;;;3.50;;
73276;SDS011;61501;43.316;5.372;2022-09-02T15:11:44;7.40;;;3.88;;
73276;SDS011;61501;43.316;5.372;2022-09-02T15:14:10;5.53;;;3.78;;
73276;SDS011;61501;43.316;5.372;2022-09-02T15:16:37;8.95;;;4.00;;
73276;SDS011;61501;43.316;5.372;2022-09-02T15:19:03;6.15;;;3.60;;
73276;SDS011;61501;43.316;5.372;2022-09-02T15:21:29;8.68;;;4.35;;
73276;SDS011;61501;43.316;5.372;2022-09-02T15:23:55;8.48;;;5.10;;
73276;SDS011;61501;43.316;5.372;2022-09-02T15:26:21;15.43;;;5.35;;
73276;SDS011;61501;43.316;5.372;2022-09-02T15:28:47;10.20;;;5.85;;
73276;SDS011;61501;43.316;5.372;2022-09-02T15:31:14;10.40;;;6.28;;
73276;SDS011;61501;43.316;5.372;2022-09-02T15:33:40;12.60;;;6.03;;
73276;SDS011;61501;43.316;5.372;2022-09-02T15:36:07;8.50;;;4.65;;
73276;SDS011;61501;43.316;5.372;2022-09-02T15:38:34;10.00;;;4.60;;
73276;SDS011;61501;43.316;5.372;2022-09-02T15:43:58;11.52;;;4.35;;
73276;SDS011;61501;43.316;5.372;2022-09-02T15:46:28;6.82;;;4.30;;
73276;SDS011;61501;43.316;5.372;2022-09-02T15:48:54;9.00;;;4.32;;
73276;SDS011;61501;43.316;5.372;2022-09-02T15:51:22;6.88;;;5.60;;
73276;SDS011;61501;43.316;5.372;2022-09-02T15:53:55;8.95;;;6.22;;
73276;SDS011;61501;43.316;5.372;2022-09-02T15:58:52;5.30;;;3.58;;
73276;SDS011;61501;43.316;5.372;2022-09-02T16:01:21;6.57;;;4.53;;
73276;SDS011;61501;43.316;5.372;2022-09-02T16:03:47;8.13;;;3.97;;
73276;SDS011;61501;43.316;5.372;2022-09-02T16:06:13;9.50;;;4.20;;
73276;SDS011;61501;43.316;5.372;2022-09-02T16:08:39;9.85;;;5.10;;
73276;SDS011;61501;43.316;5.372;2022-09-02T16:11:06;7.13;;;3.78;;
73276;SDS011;61501;43.316;5.372;2022-09-02T16:13:33;7.65;;;3.63;;
73276;SDS011;61501;43.316;5.372;2022-09-02T16:16:01;6.32;;;3.80;;
73276;SDS011;61501;43.316;5.372;2022-09-02T16:18:27;8.73;;;4.03;;
73276;SDS011;61501;43.316;5.372;2022-09-02T16:20:53;8.63;;;4.40;;
73276;SDS011;61501;43.316;5.372;2022-09-02T16:23:19;9.30;;;4.40;;
73276;SDS011;61501;43.316;5.372;2022-09-02T16:25:45;8.25;;;4.10;;
73276;SDS011;61501;43.316;5.372;2022-09-02T16:28:11;10.40;;;3.72;;
73276;SDS011;61501;43.316;5.372;2022-09-02T16:30:39;8.38;;;4.20;;
73276;SDS011;61501;43.316;5.372;2022-09-02T16:33:05;6.32;;;3.90;;
73276;SDS011;61501;43.316;5.372;2022-09-02T16:35:31;8.07;;;3.95;;
73276;SDS011;61501;43.316;5.372;2022-09-02T16:37:57;8.57;;;4.20;;
73276;SDS011;61501;43.316;5.372;2022-09-02T16:40:23;8.75;;;4.22;;
73276;SDS011;61501;43.316;5.372;2022-09-02T16:42:49;6.90;;;4.13;;
73276;SDS011;61501;43.316;5.372;2022-09-02T16:45:15;7.20;;;4.00;;
73276;SDS011;61501;43.316;5.372;2022-09-02T16:47:41;7.38;;;4.32;;
73276;SDS011;61501;43.316;5.372;2022-09-02T16:50:07;7.10;;;4.30;;
73276;SDS011;61501;43.316;5.372;2022-09-02T16:52:33;5.53;;;4.30;;
73276;SDS011;61501;43.316;5.372;2022-09-02T16:55:00;34.35;;;6.85;;
73276;SDS011;61501;43.316;5.372;2022-09-02T16:57:26;7.10;;;4.47;;
73276;SDS011;61501;43.316;5.372;2022-09-02T16:59:52;6.95;;;4.55;;
73276;SDS011;61501;43.316;5.372;2022-09-02T17:02:18;7.95;;;4.43;;
73276;SDS011;61501;43.316;5.372;2022-09-02T17:04:44;6.13;;;4.38;;
73276;SDS011;61501;43.316;5.372;2022-09-02T17:07:10;8.90;;;4.13;;
73276;SDS011;61501;43.316;5.372;2022-09-02T17:09:36;9.68;;;5.07;;
73276;SDS011;61501;43.316;5.372;2022-09-02T17:12:02;8.15;;;4.43;;
73276;SDS011;61501;43.316;5.372;2022-09-02T17:14:28;6.70;;;4.13;;
73276;SDS011;61501;43.316;5.372;2022-09-02T17:16:54;10.35;;;4.32;;
73276;SDS011;61501;43.316;5.372;2022-09-02T17:19:20;9.18;;;4.82;;